sensor_id;sensor_type;location;lat;lon;timestamp;P1;durP1;ratioP1;P2;durP2;ratioP2
31083;SDS011;36333;51.382;0.016;2022-09-21T00:01:26;10.25;;;4.43;;
31083;SDS011;36333;51.382;0.016;2022-09-21T00:03:56;7.97;;;4.22;;
31083;SDS011;36333;51.382;0.016;2022-09-21T00:06:26;15.52;;;4.97;;
31083;SDS011;36333;51.382;0.016;2022-09-21T00:08:55;8.70;;;4.35;;
31083;SDS011;36333;51.382;0.016;2022-09-21T00:11:24;9.15;;;4.30;;
31083;SDS011;36333;51.382;0.016;2022-09-21T00:13:55;9.68;;;4.88;;
31083;SDS011;36333;51.382;0.016;2022-09-21T00:16:27;8.00;;;4.28;;
31083;SDS011;36333;51.382;0.016;2022-09-21T00:18:55;9.20;;;4.38;;
31083;SDS011;36333;51.382;0.016;2022-09-21T00:21:22;10.38;;;4.75;;
31083;SDS011;36333;51.382;0.016;2022-09-21T00:23:50;12.00;;;4.57;;
31083;SDS011;36333;51.382;0.016;2022-09-21T00:26:19;7.95;;;4.13;;
31083;SDS011;36333;51.382;0.016;2022-09-21T00:28:52;11.35;;;4.50;;
31083;SDS011;36333;51.382;0.016;2022-09-21T00:31:24;11.35;;;4.60;;
31083;SDS011;36333;51.382;0.016;2022-09-21T00:33:52;7.30;;;4.63;;
31083;SDS011;36333;51.382;0.016;2022-09-21T00:36:22;11.13;;;4.32;;
31083;SDS011;36333;51.382;0.016;2022-09-21T00:38:51;11.88;;;4.63;;
31083;SDS011;36333;51.382;0.016;2022-09-21T00:41:21;9.57;;;4.65;;
31083;SDS011;36333;51.382;0.016;2022-09-21T00:44:34;11.55;;;4.68;;
31083;SDS011;36333;51.382;0.016;2022-09-21T00:46:48;8.10;;;4.03;;
31083;SDS011;36333;51.382;0.016;2022-09-21T00:49:17;10.52;;;4.78;;
31083;SDS011;36333;51.382;0.016;2022-09-21T00:51:47;9.50;;;4.70;;
31083;SDS011;36333;51.382;0.016;2022-09-21T00:54:19;8.70;;;4.95;;
31083;SDS011;36333;51.382;0.016;2022-09-21T00:56:53;8.00;;;4.70;;
31083;SDS011;36333;51.382;0.016;2022-09-21T00:59:22;10.73;;;4.50;;
31083;SDS011;36333;51.382;0.016;2022-09-21T01:01:56;7.70;;;4.30;;
31083;SDS011;36333;51.382;0.016;2022-09-21T01:04:25;11.18;;;4.57;;
31083;SDS011;36333;51.382;0.016;2022-09-21T01:06:55;12.48;;;4.80;;
31083;SDS011;36333;51.382;0.016;2022-09-21T01:09:24;13.00;;;4.90;;
31083;SDS011;36333;51.382;0.016;2022-09-21T01:26:27;10.73;;;5.25;;
31083;SDS011;36333;51.382;0.016;2022-09-21T01:29:18;10.65;;;5.22;;
31083;SDS011;36333;51.382;0.016;2022-09-21T01:35:12;11.05;;;5.68;;
31083;SDS011;36333;51.382;0.016;2022-09-21T01:40:35;12.30;;;5.23;;
31083;SDS011;36333;51.382;0.016;2022-09-21T01:43:10;9.90;;;5.35;;
31083;SDS011;36333;51.382;0.016;2022-09-21T01:46:14;10.27;;;5.05;;
31083;SDS011;36333;51.382;0.016;2022-09-21T01:48:47;9.40;;;5.53;;
31083;SDS011;36333;51.382;0.016;2022-09-21T01:51:19;12.40;;;5.32;;
31083;SDS011;36333;51.382;0.016;2022-09-21T01:53:55;11.63;;;5.30;;
31083;SDS011;36333;51.382;0.016;2022-09-21T01:56:40;14.93;;;5.32;;
31083;SDS011;36333;51.382;0.016;2022-09-21T01:59:15;12.02;;;5.72;;
31083;SDS011;36333;51.382;0.016;2022-09-21T02:01:45;11.18;;;5.43;;
31083;SDS011;36333;51.382;0.016;2022-09-21T02:04:17;11.50;;;5.88;;
31083;SDS011;36333;51.382;0.016;2022-09-21T02:06:45;11.00;;;5.57;;
31083;SDS011;36333;51.382;0.016;2022-09-21T02:09:14;10.38;;;4.88;;
31083;SDS011;36333;51.382;0.016;2022-09-21T02:11:43;8.68;;;5.13;;
31083;SDS011;36333;51.382;0.016;2022-09-21T02:14:12;9.00;;;4.80;;
31083;SDS011;36333;51.382;0.016;2022-09-21T02:22:32;10.75;;;5.07;;
31083;SDS011;36333;51.382;0.016;2022-09-21T02:25:09;10.00;;;4.70;;
31083;SDS011;36333;51.382;0.016;2022-09-21T02:27:47;11.63;;;5.22;;
31083;SDS011;36333;51.382;0.016;2022-09-21T02:30:22;9.80;;;4.72;;
31083;SDS011;36333;51.382;0.016;2022-09-21T02:32:55;10.20;;;4.53;;
31083;SDS011;36333;51.382;0.016;2022-09-21T02:36:00;10.02;;;5.10;;
31083;SDS011;36333;51.382;0.016;2022-09-21T02:38:51;10.00;;;4.63;;
31083;SDS011;36333;51.382;0.016;2022-09-21T02:44:05;9.88;;;4.80;;
31083;SDS011;36333;51.382;0.016;2022-09-21T02:49:24;9.80;;;4.80;;
31083;SDS011;36333;51.382;0.016;2022-09-21T02:51:58;7.90;;;4.65;;
31083;SDS011;36333;51.382;0.016;2022-09-21T02:54:31;9.35;;;5.00;;
31083;SDS011;36333;51.382;0.016;2022-09-21T02:57:00;10.18;;;5.03;;
31083;SDS011;36333;51.382;0.016;2022-09-21T02:59:30;8.55;;;5.35;;
31083;SDS011;36333;51.382;0.016;2022-09-21T03:01:58;10.55;;;5.30;;
31083;SDS011;36333;51.382;0.016;2022-09-21T03:04:26;8.18;;;5.10;;
31083;SDS011;36333;51.382;0.016;2022-09-21T03:06:54;10.10;;;4.80;;
31083;SDS011;36333;51.382;0.016;2022-09-21T03:09:22;11.45;;;4.82;;
31083;SDS011;36333;51.382;0.016;2022-09-21T03:11:50;6.80;;;4.43;;
31083;SDS011;36333;51.382;0.016;2022-09-21T03:14:18;10.00;;;4.95;;
31083;SDS011;36333;51.382;0.016;2022-09-21T03:16:46;9.68;;;4.80;;
31083;SDS011;36333;51.382;0.016;2022-09-21T03:19:13;10.00;;;4.88;;
31083;SDS011;36333;51.382;0.016;2022-09-21T03:21:41;8.15;;;4.70;;
31083;SDS011;36333;51.382;0.016;2022-09-21T03:24:10;9.10;;;4.60;;
31083;SDS011;36333;51.382;0.016;2022-09-21T03:26:38;9.40;;;5.00;;
31083;SDS011;36333;51.382;0.016;2022-09-21T03:29:05;9.95;;;4.95;;
31083;SDS011;36333;51.382;0.016;2022-09-21T03:31:34;8.98;;;5.20;;
31083;SDS011;36333;51.382;0.016;2022-09-21T03:34:01;10.27;;;4.88;;
31083;SDS011;36333;51.382;0.016;2022-09-21T03:36:29;9.48;;;4.65;;
31083;SDS011;36333;51.382;0.016;2022-09-21T03:38:57;9.40;;;4.68;;
31083;SDS011;36333;51.382;0.016;2022-09-21T03:41:24;8.88;;;4.38;;
31083;SDS011;36333;51.382;0.016;2022-09-21T03:43:52;8.18;;;4.40;;
31083;SDS011;36333;51.382;0.016;2022-09-21T03:46:19;9.27;;;4.88;;
31083;SDS011;36333;51.382;0.016;2022-09-21T03:48:47;9.90;;;4.53;;
31083;SDS011;36333;51.382;0.016;2022-09-21T03:51:14;10.10;;;4.72;;
31083;SDS011;36333;51.382;0.016;2022-09-21T03:53:42;11.60;;;4.68;;
31083;SDS011;36333;51.382;0.016;2022-09-21T03:56:09;9.20;;;4.72;;
31083;SDS011;36333;51.382;0.016;2022-09-21T03:58:37;9.85;;;4.65;;
31083;SDS011;36333;51.382;0.016;2022-09-21T04:01:05;8.93;;;4.78;;
31083;SDS011;36333;51.382;0.016;2022-09-21T04:03:32;13.13;;;4.75;;
31083;SDS011;36333;51.382;0.016;2022-09-21T04:06:00;8.93;;;4.82;;
31083;SDS011;36333;51.382;0.016;2022-09-21T04:08:34;7.50;;;4.45;;
31083;SDS011;36333;51.382;0.016;2022-09-21T04:11:01;8.85;;;4.72;;
31083;SDS011;36333;51.382;0.016;2022-09-21T04:13:43;10.38;;;4.85;;
31083;SDS011;36333;51.382;0.016;2022-09-21T04:16:16;8.60;;;4.80;;
31083;SDS011;36333;51.382;0.016;2022-09-21T04:18:43;9.57;;;4.75;;
31083;SDS011;36333;51.382;0.016;2022-09-21T04:21:15;12.73;;;4.60;;
31083;SDS011;36333;51.382;0.016;2022-09-21T04:23:46;11.05;;;4.97;;
31083;SDS011;36333;51.382;0.016;2022-09-21T04:26:36;10.38;;;4.70;;
31083;SDS011;36333;51.382;0.016;2022-09-21T04:29:03;8.32;;;4.70;;
31083;SDS011;36333;51.382;0.016;2022-09-21T04:31:31;10.95;;;4.85;;
31083;SDS011;36333;51.382;0.016;2022-09-21T04:33:59;8.27;;;4.93;;
31083;SDS011;36333;51.382;0.016;2022-09-21T04:36:27;11.02;;;4.70;;
31083;SDS011;36333;51.382;0.016;2022-09-21T04:39:02;11.02;;;5.07;;
31083;SDS011;36333;51.382;0.016;2022-09-21T04:41:30;10.98;;;4.90;;
31083;SDS011;36333;51.382;0.016;2022-09-21T04:43:57;11.40;;;5.13;;
31083;SDS011;36333;51.382;0.016;2022-09-21T04:46:25;8.63;;;4.78;;
31083;SDS011;36333;51.382;0.016;2022-09-21T04:48:53;11.00;;;4.65;;
31083;SDS011;36333;51.382;0.016;2022-09-21T04:51:21;8.95;;;4.53;;
31083;SDS011;36333;51.382;0.016;2022-09-21T04:53:49;11.20;;;5.10;;
31083;SDS011;36333;51.382;0.016;2022-09-21T04:56:17;10.25;;;4.90;;
31083;SDS011;36333;51.382;0.016;2022-09-21T04:58:45;8.00;;;4.43;;
31083;SDS011;36333;51.382;0.016;2022-09-21T05:01:13;10.73;;;5.05;;
31083;SDS011;36333;51.382;0.016;2022-09-21T05:03:40;10.05;;;4.80;;
31083;SDS011;36333;51.382;0.016;2022-09-21T05:06:08;7.85;;;4.70;;
31083;SDS011;36333;51.382;0.016;2022-09-21T05:08:39;10.90;;;4.82;;
31083;SDS011;36333;51.382;0.016;2022-09-21T05:11:25;9.50;;;4.45;;
31083;SDS011;36333;51.382;0.016;2022-09-21T05:13:53;12.43;;;4.70;;
31083;SDS011;36333;51.382;0.016;2022-09-21T05:16:20;12.73;;;4.95;;
31083;SDS011;36333;51.382;0.016;2022-09-21T05:18:51;10.25;;;4.65;;
31083;SDS011;36333;51.382;0.016;2022-09-21T05:21:20;7.63;;;4.28;;
31083;SDS011;36333;51.382;0.016;2022-09-21T05:23:48;13.55;;;4.50;;
31083;SDS011;36333;51.382;0.016;2022-09-21T05:26:16;7.93;;;4.22;;
31083;SDS011;36333;51.382;0.016;2022-09-21T05:28:43;8.63;;;4.68;;
31083;SDS011;36333;51.382;0.016;2022-09-21T05:39:57;12.50;;;4.70;;
31083;SDS011;36333;51.382;0.016;2022-09-21T05:42:25;10.77;;;4.72;;
31083;SDS011;36333;51.382;0.016;2022-09-21T05:44:53;8.60;;;4.80;;
31083;SDS011;36333;51.382;0.016;2022-09-21T05:47:25;9.38;;;5.18;;
31083;SDS011;36333;51.382;0.016;2022-09-21T05:52:49;12.98;;;4.95;;
31083;SDS011;36333;51.382;0.016;2022-09-21T06:03:27;8.18;;;4.70;;
31083;SDS011;36333;51.382;0.016;2022-09-21T06:06:06;10.57;;;5.25;;
31083;SDS011;36333;51.382;0.016;2022-09-21T06:08:35;10.65;;;4.53;;
31083;SDS011;36333;51.382;0.016;2022-09-21T06:11:02;10.70;;;4.90;;
31083;SDS011;36333;51.382;0.016;2022-09-21T06:13:30;11.93;;;5.10;;
31083;SDS011;36333;51.382;0.016;2022-09-21T06:16:00;9.88;;;5.25;;
31083;SDS011;36333;51.382;0.016;2022-09-21T06:18:28;8.52;;;4.22;;
31083;SDS011;36333;51.382;0.016;2022-09-21T06:20:56;10.20;;;4.95;;
31083;SDS011;36333;51.382;0.016;2022-09-21T06:23:24;9.75;;;4.55;;
31083;SDS011;36333;51.382;0.016;2022-09-21T06:25:52;11.85;;;4.70;;
31083;SDS011;36333;51.382;0.016;2022-09-21T06:28:24;10.27;;;4.88;;
31083;SDS011;36333;51.382;0.016;2022-09-21T06:30:53;13.80;;;5.07;;
31083;SDS011;36333;51.382;0.016;2022-09-21T06:33:22;11.55;;;5.00;;
31083;SDS011;36333;51.382;0.016;2022-09-21T06:35:59;8.20;;;4.50;;
31083;SDS011;36333;51.382;0.016;2022-09-21T06:38:27;10.02;;;4.97;;
31083;SDS011;36333;51.382;0.016;2022-09-21T06:40:59;13.57;;;4.78;;
31083;SDS011;36333;51.382;0.016;2022-09-21T06:43:28;9.80;;;4.72;;
31083;SDS011;36333;51.382;0.016;2022-09-21T06:45:56;8.73;;;5.30;;
31083;SDS011;36333;51.382;0.016;2022-09-21T06:48:26;9.23;;;4.65;;
31083;SDS011;36333;51.382;0.016;2022-09-21T06:50:55;10.13;;;5.07;;
31083;SDS011;36333;51.382;0.016;2022-09-21T06:53:24;7.80;;;4.82;;
31083;SDS011;36333;51.382;0.016;2022-09-21T06:55:53;11.55;;;5.07;;
31083;SDS011;36333;51.382;0.016;2022-09-21T06:58:20;11.38;;;5.15;;
31083;SDS011;36333;51.382;0.016;2022-09-21T07:00:48;10.00;;;5.28;;
31083;SDS011;36333;51.382;0.016;2022-09-21T07:03:21;9.60;;;4.65;;
31083;SDS011;36333;51.382;0.016;2022-09-21T07:05:56;10.13;;;4.63;;
31083;SDS011;36333;51.382;0.016;2022-09-21T07:08:24;10.73;;;5.45;;
31083;SDS011;36333;51.382;0.016;2022-09-21T07:11:13;11.45;;;4.78;;
31083;SDS011;36333;51.382;0.016;2022-09-21T07:13:41;11.63;;;4.65;;
31083;SDS011;36333;51.382;0.016;2022-09-21T07:16:09;11.88;;;5.28;;
31083;SDS011;36333;51.382;0.016;2022-09-21T07:18:41;9.13;;;5.40;;
31083;SDS011;36333;51.382;0.016;2022-09-21T07:21:10;9.15;;;4.63;;
31083;SDS011;36333;51.382;0.016;2022-09-21T07:23:37;8.15;;;4.68;;
31083;SDS011;36333;51.382;0.016;2022-09-21T07:26:06;14.20;;;5.10;;
31083;SDS011;36333;51.382;0.016;2022-09-21T07:28:36;7.07;;;4.55;;
31083;SDS011;36333;51.382;0.016;2022-09-21T07:33:41;9.85;;;5.10;;
31083;SDS011;36333;51.382;0.016;2022-09-21T07:36:10;12.10;;;4.80;;
31083;SDS011;36333;51.382;0.016;2022-09-21T07:38:39;11.18;;;4.90;;
31083;SDS011;36333;51.382;0.016;2022-09-21T07:41:09;9.85;;;4.85;;
31083;SDS011;36333;51.382;0.016;2022-09-21T07:43:39;9.52;;;4.60;;
31083;SDS011;36333;51.382;0.016;2022-09-21T07:46:08;11.30;;;4.85;;
31083;SDS011;36333;51.382;0.016;2022-09-21T07:48:38;9.10;;;4.60;;
31083;SDS011;36333;51.382;0.016;2022-09-21T07:51:09;10.27;;;5.00;;
31083;SDS011;36333;51.382;0.016;2022-09-21T07:53:39;10.95;;;4.88;;
31083;SDS011;36333;51.382;0.016;2022-09-21T07:56:09;13.00;;;4.82;;
31083;SDS011;36333;51.382;0.016;2022-09-21T07:58:38;13.27;;;4.60;;
31083;SDS011;36333;51.382;0.016;2022-09-21T08:01:24;8.18;;;4.50;;
31083;SDS011;36333;51.382;0.016;2022-09-21T08:03:54;10.07;;;4.75;;
31083;SDS011;36333;51.382;0.016;2022-09-21T08:06:23;14.75;;;4.60;;
31083;SDS011;36333;51.382;0.016;2022-09-21T08:08:53;8.50;;;4.40;;
31083;SDS011;36333;51.382;0.016;2022-09-21T08:11:24;11.85;;;4.75;;
31083;SDS011;36333;51.382;0.016;2022-09-21T08:13:54;10.82;;;4.63;;
31083;SDS011;36333;51.382;0.016;2022-09-21T08:16:24;12.98;;;4.57;;
31083;SDS011;36333;51.382;0.016;2022-09-21T08:18:52;6.15;;;3.72;;
31083;SDS011;36333;51.382;0.016;2022-09-21T08:21:20;11.05;;;4.50;;
31083;SDS011;36333;51.382;0.016;2022-09-21T08:23:48;8.38;;;4.28;;
31083;SDS011;36333;51.382;0.016;2022-09-21T08:26:16;13.38;;;4.70;;
31083;SDS011;36333;51.382;0.016;2022-09-21T08:28:46;12.77;;;4.20;;
31083;SDS011;36333;51.382;0.016;2022-09-21T08:31:16;12.25;;;4.00;;
31083;SDS011;36333;51.382;0.016;2022-09-21T08:33:46;12.63;;;4.47;;
31083;SDS011;36333;51.382;0.016;2022-09-21T08:36:14;18.38;;;5.05;;
31083;SDS011;36333;51.382;0.016;2022-09-21T08:38:42;8.68;;;4.20;;
31083;SDS011;36333;51.382;0.016;2022-09-21T08:41:14;13.43;;;4.47;;
31083;SDS011;36333;51.382;0.016;2022-09-21T08:43:59;11.73;;;4.28;;
31083;SDS011;36333;51.382;0.016;2022-09-21T08:46:33;11.82;;;4.22;;
31083;SDS011;36333;51.382;0.016;2022-09-21T08:49:10;10.38;;;4.10;;
31083;SDS011;36333;51.382;0.016;2022-09-21T08:51:46;8.60;;;4.22;;
31083;SDS011;36333;51.382;0.016;2022-09-21T08:54:21;13.85;;;4.75;;
31083;SDS011;36333;51.382;0.016;2022-09-21T08:56:55;10.27;;;4.43;;
31083;SDS011;36333;51.382;0.016;2022-09-21T08:59:32;13.25;;;4.35;;
31083;SDS011;36333;51.382;0.016;2022-09-21T09:13:24;7.90;;;3.40;;
31083;SDS011;36333;51.382;0.016;2022-09-21T09:18:57;9.88;;;3.70;;
31083;SDS011;36333;51.382;0.016;2022-09-21T09:21:37;11.63;;;3.67;;
31083;SDS011;36333;51.382;0.016;2022-09-21T09:24:10;10.65;;;4.25;;
31083;SDS011;36333;51.382;0.016;2022-09-21T09:26:56;9.57;;;3.88;;
31083;SDS011;36333;51.382;0.016;2022-09-21T09:29:28;11.98;;;4.43;;
31083;SDS011;36333;51.382;0.016;2022-09-21T09:32:01;11.00;;;3.72;;
31083;SDS011;36333;51.382;0.016;2022-09-21T09:34:34;10.82;;;4.32;;
31083;SDS011;36333;51.382;0.016;2022-09-21T09:37:10;20.83;;;5.78;;
31083;SDS011;36333;51.382;0.016;2022-09-21T09:39:40;9.98;;;4.43;;
31083;SDS011;36333;51.382;0.016;2022-09-21T09:47:58;12.00;;;4.70;;
31083;SDS011;36333;51.382;0.016;2022-09-21T09:50:32;13.38;;;4.75;;
31083;SDS011;36333;51.382;0.016;2022-09-21T09:53:08;13.85;;;4.88;;
31083;SDS011;36333;51.382;0.016;2022-09-21T09:55:37;12.50;;;5.13;;
31083;SDS011;36333;51.382;0.016;2022-09-21T09:58:14;15.30;;;5.60;;
31083;SDS011;36333;51.382;0.016;2022-09-21T10:00:44;14.38;;;6.57;;
31083;SDS011;36333;51.382;0.016;2022-09-21T10:03:18;18.75;;;7.93;;
31083;SDS011;36333;51.382;0.016;2022-09-21T10:05:47;17.67;;;7.57;;
31083;SDS011;36333;51.382;0.016;2022-09-21T10:13:31;18.50;;;7.60;;
31083;SDS011;36333;51.382;0.016;2022-09-21T10:16:02;17.20;;;8.02;;
31083;SDS011;36333;51.382;0.016;2022-09-21T10:21:16;15.80;;;7.47;;
31083;SDS011;36333;51.382;0.016;2022-09-21T10:23:51;16.40;;;6.57;;
31083;SDS011;36333;51.382;0.016;2022-09-21T10:26:50;18.95;;;6.55;;
31083;SDS011;36333;51.382;0.016;2022-09-21T10:32:02;17.00;;;7.55;;
31083;SDS011;36333;51.382;0.016;2022-09-21T10:34:59;14.07;;;7.20;;
31083;SDS011;36333;51.382;0.016;2022-09-21T10:37:39;17.73;;;7.78;;
31083;SDS011;36333;51.382;0.016;2022-09-21T10:43:04;17.05;;;7.72;;
31083;SDS011;36333;51.382;0.016;2022-09-21T10:45:32;13.60;;;7.10;;
31083;SDS011;36333;51.382;0.016;2022-09-21T10:55:36;12.38;;;5.35;;
31083;SDS011;36333;51.382;0.016;2022-09-21T10:58:24;12.30;;;5.10;;
31083;SDS011;36333;51.382;0.016;2022-09-21T11:00:52;7.93;;;3.72;;
31083;SDS011;36333;51.382;0.016;2022-09-21T11:06:20;8.90;;;3.10;;
31083;SDS011;36333;51.382;0.016;2022-09-21T11:09:05;5.63;;;2.47;;
31083;SDS011;36333;51.382;0.016;2022-09-21T11:11:54;5.00;;;2.38;;
31083;SDS011;36333;51.382;0.016;2022-09-21T11:14:51;4.88;;;2.40;;
31083;SDS011;36333;51.382;0.016;2022-09-21T11:20:13;7.45;;;2.15;;
31083;SDS011;36333;51.382;0.016;2022-09-21T11:23:19;5.60;;;2.30;;
31083;SDS011;36333;51.382;0.016;2022-09-21T11:25:57;5.70;;;2.00;;
31083;SDS011;36333;51.382;0.016;2022-09-21T11:28:38;5.55;;;1.98;;
31083;SDS011;36333;51.382;0.016;2022-09-21T11:34:02;6.43;;;2.15;;
31083;SDS011;36333;51.382;0.016;2022-09-21T11:36:58;7.30;;;2.40;;
31083;SDS011;36333;51.382;0.016;2022-09-21T11:45:12;4.70;;;2.22;;
31083;SDS011;36333;51.382;0.016;2022-09-21T11:53:35;5.75;;;2.17;;
31083;SDS011;36333;51.382;0.016;2022-09-21T12:04:56;5.55;;;2.47;;
31083;SDS011;36333;51.382;0.016;2022-09-21T12:10:13;3.67;;;1.90;;
31083;SDS011;36333;51.382;0.016;2022-09-21T12:12:55;4.68;;;2.42;;
31083;SDS011;36333;51.382;0.016;2022-09-21T12:21:06;4.30;;;2.00;;
31083;SDS011;36333;51.382;0.016;2022-09-21T12:23:45;5.32;;;1.90;;
31083;SDS011;36333;51.382;0.016;2022-09-21T12:29:02;4.15;;;2.10;;
31083;SDS011;36333;51.382;0.016;2022-09-21T12:31:39;5.72;;;2.13;;
31083;SDS011;36333;51.382;0.016;2022-09-21T12:34:20;3.67;;;1.83;;
31083;SDS011;36333;51.382;0.016;2022-09-21T12:39:48;5.28;;;2.08;;
31083;SDS011;36333;51.382;0.016;2022-09-21T12:42:48;5.43;;;1.50;;
31083;SDS011;36333;51.382;0.016;2022-09-21T12:45:30;4.97;;;1.53;;
31083;SDS011;36333;51.382;0.016;2022-09-21T12:48:21;5.82;;;1.60;;
31083;SDS011;36333;51.382;0.016;2022-09-21T12:50:56;4.28;;;1.48;;
31083;SDS011;36333;51.382;0.016;2022-09-21T12:53:33;3.00;;;1.40;;
31083;SDS011;36333;51.382;0.016;2022-09-21T13:01:28;3.42;;;1.50;;
31083;SDS011;36333;51.382;0.016;2022-09-21T13:10:00;6.78;;;1.98;;
31083;SDS011;36333;51.382;0.016;2022-09-21T13:12:40;4.63;;;2.08;;
31083;SDS011;36333;51.382;0.016;2022-09-21T13:15:13;5.90;;;2.75;;
31083;SDS011;36333;51.382;0.016;2022-09-21T13:18:01;3.80;;;2.60;;
31083;SDS011;36333;51.382;0.016;2022-09-21T13:20:49;4.95;;;2.30;;
31083;SDS011;36333;51.382;0.016;2022-09-21T13:23:50;5.93;;;2.20;;
31083;SDS011;36333;51.382;0.016;2022-09-21T13:26:34;4.80;;;1.90;;
31083;SDS011;36333;51.382;0.016;2022-09-21T13:31:52;3.50;;;1.67;;
31083;SDS011;36333;51.382;0.016;2022-09-21T13:34:28;2.60;;;1.60;;
31083;SDS011;36333;51.382;0.016;2022-09-21T13:39:43;3.20;;;1.65;;
31083;SDS011;36333;51.382;0.016;2022-09-21T13:47:45;3.13;;;1.65;;
31083;SDS011;36333;51.382;0.016;2022-09-21T13:53:05;5.82;;;1.67;;
31083;SDS011;36333;51.382;0.016;2022-09-21T13:55:48;2.65;;;1.50;;
31083;SDS011;36333;51.382;0.016;2022-09-21T13:58:30;2.47;;;1.30;;
31083;SDS011;36333;51.382;0.016;2022-09-21T14:01:04;2.53;;;1.50;;
31083;SDS011;36333;51.382;0.016;2022-09-21T14:04:01;1.92;;;1.35;;
31083;SDS011;36333;51.382;0.016;2022-09-21T14:06:32;2.63;;;1.50;;
31083;SDS011;36333;51.382;0.016;2022-09-21T14:09:18;2.72;;;1.15;;
31083;SDS011;36333;51.382;0.016;2022-09-21T14:12:05;1.80;;;1.02;;
31083;SDS011;36333;51.382;0.016;2022-09-21T14:23:34;3.05;;;1.10;;
31083;SDS011;36333;51.382;0.016;2022-09-21T14:31:41;4.55;;;1.20;;
31083;SDS011;36333;51.382;0.016;2022-09-21T14:34:11;2.30;;;1.30;;
31083;SDS011;36333;51.382;0.016;2022-09-21T14:36:50;2.45;;;1.20;;
31083;SDS011;36333;51.382;0.016;2022-09-21T14:39:22;4.18;;;1.60;;
31083;SDS011;36333;51.382;0.016;2022-09-21T14:41:55;3.53;;;1.58;;
31083;SDS011;36333;51.382;0.016;2022-09-21T14:44:27;2.75;;;1.70;;
31083;SDS011;36333;51.382;0.016;2022-09-21T14:52:23;4.43;;;1.77;;
31083;SDS011;36333;51.382;0.016;2022-09-21T14:55:16;3.00;;;1.40;;
31083;SDS011;36333;51.382;0.016;2022-09-21T15:00:48;3.08;;;1.80;;
31083;SDS011;36333;51.382;0.016;2022-09-21T15:06:14;6.75;;;1.83;;
31083;SDS011;36333;51.382;0.016;2022-09-21T15:12:42;6.55;;;2.25;;
31083;SDS011;36333;51.382;0.016;2022-09-21T15:18:15;4.43;;;2.17;;
31083;SDS011;36333;51.382;0.016;2022-09-21T15:20:56;3.85;;;2.00;;
31083;SDS011;36333;51.382;0.016;2022-09-21T15:23:30;5.95;;;1.80;;
31083;SDS011;36333;51.382;0.016;2022-09-21T15:26:01;8.93;;;2.20;;
31083;SDS011;36333;51.382;0.016;2022-09-21T15:28:35;9.10;;;2.28;;
31083;SDS011;36333;51.382;0.016;2022-09-21T15:31:35;4.97;;;2.03;;
31083;SDS011;36333;51.382;0.016;2022-09-21T15:34:09;2.92;;;1.60;;
31083;SDS011;36333;51.382;0.016;2022-09-21T15:36:40;6.65;;;1.98;;
31083;SDS011;36333;51.382;0.016;2022-09-21T15:39:28;5.10;;;1.75;;
31083;SDS011;36333;51.382;0.016;2022-09-21T15:44:34;4.18;;;1.50;;
31083;SDS011;36333;51.382;0.016;2022-09-21T15:47:06;5.38;;;1.77;;
31083;SDS011;36333;51.382;0.016;2022-09-21T15:49:40;3.83;;;1.67;;
31083;SDS011;36333;51.382;0.016;2022-09-21T15:54:56;2.85;;;1.30;;
31083;SDS011;36333;51.382;0.016;2022-09-21T15:57:39;4.15;;;1.63;;
31083;SDS011;36333;51.382;0.016;2022-09-21T16:02:48;3.35;;;1.40;;
31083;SDS011;36333;51.382;0.016;2022-09-21T16:05:32;4.22;;;1.42;;
31083;SDS011;36333;51.382;0.016;2022-09-21T16:08:19;3.50;;;1.58;;
31083;SDS011;36333;51.382;0.016;2022-09-21T16:11:18;5.07;;;1.63;;
31083;SDS011;36333;51.382;0.016;2022-09-21T16:14:09;3.22;;;1.50;;
31083;SDS011;36333;51.382;0.016;2022-09-21T16:24:56;3.38;;;1.50;;
31083;SDS011;36333;51.382;0.016;2022-09-21T16:27:27;3.50;;;1.65;;
31083;SDS011;36333;51.382;0.016;2022-09-21T16:29:57;2.60;;;1.40;;
31083;SDS011;36333;51.382;0.016;2022-09-21T16:32:32;8.27;;;2.00;;
31083;SDS011;36333;51.382;0.016;2022-09-21T16:37:54;4.25;;;1.40;;
31083;SDS011;36333;51.382;0.016;2022-09-21T16:40:25;3.83;;;1.60;;
31083;SDS011;36333;51.382;0.016;2022-09-21T16:42:59;3.42;;;1.40;;
31083;SDS011;36333;51.382;0.016;2022-09-21T16:45:32;5.07;;;1.58;;
31083;SDS011;36333;51.382;0.016;2022-09-21T16:48:02;5.30;;;1.80;;
31083;SDS011;36333;51.382;0.016;2022-09-21T16:50:33;3.53;;;1.42;;
31083;SDS011;36333;51.382;0.016;2022-09-21T16:53:01;4.10;;;1.80;;
31083;SDS011;36333;51.382;0.016;2022-09-21T16:55:33;3.33;;;1.58;;
31083;SDS011;36333;51.382;0.016;2022-09-21T16:58:01;2.88;;;1.67;;
31083;SDS011;36333;51.382;0.016;2022-09-21T17:00:35;3.72;;;1.58;;
31083;SDS011;36333;51.382;0.016;2022-09-21T17:03:09;3.17;;;1.50;;
31083;SDS011;36333;51.382;0.016;2022-09-21T17:05:37;6.15;;;1.73;;
31083;SDS011;36333;51.382;0.016;2022-09-21T17:08:07;5.75;;;1.52;;
31083;SDS011;36333;51.382;0.016;2022-09-21T17:10:41;3.90;;;1.50;;
31083;SDS011;36333;51.382;0.016;2022-09-21T17:13:12;4.18;;;1.73;;
31083;SDS011;36333;51.382;0.016;2022-09-21T17:15:42;6.40;;;1.50;;
31083;SDS011;36333;51.382;0.016;2022-09-21T17:18:13;3.85;;;1.80;;
31083;SDS011;36333;51.382;0.016;2022-09-21T17:20:41;5.00;;;1.35;;
31083;SDS011;36333;51.382;0.016;2022-09-21T17:23:10;5.60;;;1.45;;
31083;SDS011;36333;51.382;0.016;2022-09-21T17:25:37;6.05;;;2.20;;
31083;SDS011;36333;51.382;0.016;2022-09-21T17:28:12;4.20;;;1.73;;
31083;SDS011;36333;51.382;0.016;2022-09-21T17:30:43;7.47;;;1.70;;
31083;SDS011;36333;51.382;0.016;2022-09-21T17:33:12;4.90;;;1.80;;
31083;SDS011;36333;51.382;0.016;2022-09-21T17:35:40;5.25;;;1.80;;
31083;SDS011;36333;51.382;0.016;2022-09-21T17:38:07;6.20;;;1.73;;
31083;SDS011;36333;51.382;0.016;2022-09-21T17:40:40;4.95;;;2.00;;
31083;SDS011;36333;51.382;0.016;2022-09-21T17:48:31;4.60;;;1.98;;
31083;SDS011;36333;51.382;0.016;2022-09-21T17:51:00;5.05;;;2.00;;
31083;SDS011;36333;51.382;0.016;2022-09-21T17:59:02;5.88;;;2.17;;
31083;SDS011;36333;51.382;0.016;2022-09-21T18:01:35;4.68;;;2.38;;
31083;SDS011;36333;51.382;0.016;2022-09-21T18:04:07;5.57;;;2.30;;
31083;SDS011;36333;51.382;0.016;2022-09-21T18:06:39;5.03;;;2.28;;
31083;SDS011;36333;51.382;0.016;2022-09-21T18:09:08;5.90;;;2.47;;
31083;SDS011;36333;51.382;0.016;2022-09-21T18:25:44;8.98;;;3.13;;
31083;SDS011;36333;51.382;0.016;2022-09-21T18:28:22;10.02;;;3.70;;
31083;SDS011;36333;51.382;0.016;2022-09-21T18:34:05;11.02;;;3.45;;
31083;SDS011;36333;51.382;0.016;2022-09-21T18:40:08;6.80;;;3.08;;
31083;SDS011;36333;51.382;0.016;2022-09-21T18:43:25;10.85;;;4.07;;
31083;SDS011;36333;51.382;0.016;2022-09-21T18:46:00;12.60;;;5.70;;
31083;SDS011;36333;51.382;0.016;2022-09-21T18:51:09;67.22;;;28.65;;
31083;SDS011;36333;51.382;0.016;2022-09-21T18:54:22;74.78;;;31.25;;
31083;SDS011;36333;51.382;0.016;2022-09-21T18:56:53;78.70;;;33.50;;
31083;SDS011;36333;51.382;0.016;2022-09-21T18:59:26;52.55;;;21.15;;
31083;SDS011;36333;51.382;0.016;2022-09-21T19:01:58;31.13;;;14.43;;
31083;SDS011;36333;51.382;0.016;2022-09-21T19:04:27;15.95;;;7.45;;
31083;SDS011;36333;51.382;0.016;2022-09-21T19:06:59;12.23;;;5.38;;
31083;SDS011;36333;51.382;0.016;2022-09-21T19:09:56;9.93;;;5.93;;
31083;SDS011;36333;51.382;0.016;2022-09-21T19:15:34;9.75;;;5.65;;
31083;SDS011;36333;51.382;0.016;2022-09-21T19:35:20;10.20;;;4.38;;
31083;SDS011;36333;51.382;0.016;2022-09-21T19:37:51;10.70;;;4.22;;
31083;SDS011;36333;51.382;0.016;2022-09-21T19:40:22;8.20;;;4.25;;
31083;SDS011;36333;51.382;0.016;2022-09-21T19:48:53;11.77;;;4.40;;
31083;SDS011;36333;51.382;0.016;2022-09-21T19:51:30;7.80;;;4.32;;
31083;SDS011;36333;51.382;0.016;2022-09-21T19:54:02;7.93;;;4.65;;
31083;SDS011;36333;51.382;0.016;2022-09-21T19:56:53;9.38;;;4.70;;